sensor_id;sensor_type;location;lat;lon;timestamp;P1;durP1;ratioP1;P2;durP2;ratioP2
15466;SDS011;7834;49.452;11.056;2024-03-02T00:01:23;43.70;;;31.65;;
15466;SDS011;7834;49.452;11.056;2024-03-02T00:03:48;42.03;;;31.03;;
15466;SDS011;7834;49.452;11.056;2024-03-02T00:06:14;41.42;;;29.88;;
15466;SDS011;7834;49.452;11.056;2024-03-02T00:08:40;44.60;;;31.55;;
15466;SDS011;7834;49.452;11.056;2024-03-02T00:11:06;41.90;;;30.73;;
15466;SDS011;7834;49.452;11.056;2024-03-02T00:13:31;45.00;;;31.95;;
15466;SDS011;7834;49.452;11.056;2024-03-02T00:15:58;41.00;;;30.10;;
15466;SDS011;7834;49.452;11.056;2024-03-02T00:18:31;42.50;;;30.33;;
15466;SDS011;7834;49.452;11.056;2024-03-02T00:20:57;42.77;;;30.70;;
15466;SDS011;7834;49.452;11.056;2024-03-02T00:23:23;44.00;;;30.38;;
15466;SDS011;7834;49.452;11.056;2024-03-02T00:25:49;42.75;;;30.50;;
15466;SDS011;7834;49.452;11.056;2024-03-02T00:33:16;40.50;;;30.25;;
15466;SDS011;7834;49.452;11.056;2024-03-02T00:35:44;40.13;;;30.20;;
15466;SDS011;7834;49.452;11.056;2024-03-02T00:38:09;41.13;;;29.73;;
15466;SDS011;7834;49.452;11.056;2024-03-02T00:40:35;40.83;;;29.97;;
15466;SDS011;7834;49.452;11.056;2024-03-02T00:43:01;42.67;;;30.85;;
15466;SDS011;7834;49.452;11.056;2024-03-02T00:45:27;41.70;;;29.88;;
15466;SDS011;7834;49.452;11.056;2024-03-02T00:47:53;39.92;;;29.25;;
15466;SDS011;7834;49.452;11.056;2024-03-02T00:50:18;40.63;;;29.30;;
15466;SDS011;7834;49.452;11.056;2024-03-02T00:52:45;40.23;;;29.57;;
15466;SDS011;7834;49.452;11.056;2024-03-02T00:55:10;39.10;;;28.95;;
15466;SDS011;7834;49.452;11.056;2024-03-02T00:57:36;39.73;;;29.53;;
15466;SDS011;7834;49.452;11.056;2024-03-02T01:00:01;39.38;;;29.08;;
15466;SDS011;7834;49.452;11.056;2024-03-02T01:02:29;41.13;;;29.38;;
15466;SDS011;7834;49.452;11.056;2024-03-02T01:04:54;42.83;;;30.80;;
15466;SDS011;7834;49.452;11.056;2024-03-02T01:07:20;43.00;;;29.83;;
15466;SDS011;7834;49.452;11.056;2024-03-02T01:09:46;41.97;;;31.30;;
15466;SDS011;7834;49.452;11.056;2024-03-02T01:12:11;41.25;;;31.05;;
15466;SDS011;7834;49.452;11.056;2024-03-02T01:14:37;44.83;;;31.90;;
15466;SDS011;7834;49.452;11.056;2024-03-02T01:17:02;46.63;;;31.92;;
15466;SDS011;7834;49.452;11.056;2024-03-02T01:19:30;42.75;;;32.05;;
15466;SDS011;7834;49.452;11.056;2024-03-02T01:21:55;41.55;;;31.25;;
15466;SDS011;7834;49.452;11.056;2024-03-02T01:24:22;43.63;;;31.77;;
15466;SDS011;7834;49.452;11.056;2024-03-02T01:26:47;43.33;;;31.53;;
15466;SDS011;7834;49.452;11.056;2024-03-02T01:29:13;46.67;;;31.65;;
15466;SDS011;7834;49.452;11.056;2024-03-02T01:31:38;45.87;;;32.63;;
15466;SDS011;7834;49.452;11.056;2024-03-02T01:34:07;42.90;;;31.30;;
15466;SDS011;7834;49.452;11.056;2024-03-02T01:36:33;43.95;;;32.25;;
15466;SDS011;7834;49.452;11.056;2024-03-02T01:38:58;43.00;;;31.67;;
15466;SDS011;7834;49.452;11.056;2024-03-02T01:41:24;42.53;;;31.73;;
15466;SDS011;7834;49.452;11.056;2024-03-02T01:43:50;44.03;;;32.07;;
15466;SDS011;7834;49.452;11.056;2024-03-02T01:46:15;41.10;;;30.25;;
15466;SDS011;7834;49.452;11.056;2024-03-02T01:48:41;42.42;;;30.48;;
15466;SDS011;7834;49.452;11.056;2024-03-02T01:51:07;41.67;;;30.07;;
15466;SDS011;7834;49.452;11.056;2024-03-02T01:53:33;42.90;;;30.88;;
15466;SDS011;7834;49.452;11.056;2024-03-02T01:55:59;43.17;;;31.27;;
15466;SDS011;7834;49.452;11.056;2024-03-02T01:58:24;41.50;;;31.37;;
15466;SDS011;7834;49.452;11.056;2024-03-02T02:00:50;43.65;;;32.42;;
15466;SDS011;7834;49.452;11.056;2024-03-02T02:03:16;43.03;;;31.53;;
15466;SDS011;7834;49.452;11.056;2024-03-02T02:05:44;44.53;;;31.50;;
15466;SDS011;7834;49.452;11.056;2024-03-02T02:08:11;40.92;;;30.25;;
15466;SDS011;7834;49.452;11.056;2024-03-02T02:10:36;44.60;;;31.42;;
15466;SDS011;7834;49.452;11.056;2024-03-02T02:13:02;43.13;;;30.90;;
15466;SDS011;7834;49.452;11.056;2024-03-02T02:15:28;40.75;;;31.20;;
15466;SDS011;7834;49.452;11.056;2024-03-02T02:17:54;42.92;;;32.15;;
15466;SDS011;7834;49.452;11.056;2024-03-02T02:20:20;44.17;;;31.67;;
15466;SDS011;7834;49.452;11.056;2024-03-02T02:22:59;43.90;;;31.97;;
15466;SDS011;7834;49.452;11.056;2024-03-02T02:25:24;45.35;;;32.70;;
15466;SDS011;7834;49.452;11.056;2024-03-02T02:27:51;45.13;;;33.15;;
15466;SDS011;7834;49.452;11.056;2024-03-02T02:30:20;46.42;;;32.67;;
15466;SDS011;7834;49.452;11.056;2024-03-02T02:32:46;45.42;;;32.22;;
15466;SDS011;7834;49.452;11.056;2024-03-02T02:35:12;45.13;;;31.13;;
15466;SDS011;7834;49.452;11.056;2024-03-02T02:37:38;43.93;;;32.07;;
15466;SDS011;7834;49.452;11.056;2024-03-02T02:40:04;43.13;;;31.02;;
15466;SDS011;7834;49.452;11.056;2024-03-02T02:42:30;41.30;;;30.13;;
15466;SDS011;7834;49.452;11.056;2024-03-02T02:44:59;40.53;;;29.92;;
15466;SDS011;7834;49.452;11.056;2024-03-02T02:47:25;39.60;;;30.07;;
15466;SDS011;7834;49.452;11.056;2024-03-02T02:49:51;40.17;;;30.20;;
15466;SDS011;7834;49.452;11.056;2024-03-02T02:52:16;41.87;;;30.30;;
15466;SDS011;7834;49.452;11.056;2024-03-02T02:54:43;40.30;;;29.45;;
15466;SDS011;7834;49.452;11.056;2024-03-02T02:57:08;38.97;;;29.20;;
15466;SDS011;7834;49.452;11.056;2024-03-02T02:59:35;39.33;;;28.43;;
15466;SDS011;7834;49.452;11.056;2024-03-02T03:02:00;39.22;;;29.23;;
15466;SDS011;7834;49.452;11.056;2024-03-02T03:04:26;37.87;;;28.30;;
15466;SDS011;7834;49.452;11.056;2024-03-02T03:06:51;38.33;;;28.23;;
15466;SDS011;7834;49.452;11.056;2024-03-02T03:09:19;37.95;;;27.42;;
15466;SDS011;7834;49.452;11.056;2024-03-02T03:11:44;34.80;;;26.30;;
15466;SDS011;7834;49.452;11.056;2024-03-02T03:14:10;35.17;;;26.92;;
15466;SDS011;7834;49.452;11.056;2024-03-02T03:16:36;33.50;;;26.13;;
15466;SDS011;7834;49.452;11.056;2024-03-02T03:19:01;36.53;;;26.63;;
15466;SDS011;7834;49.452;11.056;2024-03-02T03:21:27;32.28;;;25.50;;
15466;SDS011;7834;49.452;11.056;2024-03-02T03:23:52;34.20;;;25.13;;
15466;SDS011;7834;49.452;11.056;2024-03-02T03:26:18;34.85;;;25.52;;
15466;SDS011;7834;49.452;11.056;2024-03-02T03:28:43;32.90;;;25.50;;
15466;SDS011;7834;49.452;11.056;2024-03-02T03:31:09;32.10;;;24.35;;
15466;SDS011;7834;49.452;11.056;2024-03-02T03:33:36;32.53;;;24.55;;
15466;SDS011;7834;49.452;11.056;2024-03-02T03:36:01;29.83;;;23.93;;
15466;SDS011;7834;49.452;11.056;2024-03-02T03:38:28;30.60;;;23.48;;
15466;SDS011;7834;49.452;11.056;2024-03-02T03:40:54;28.80;;;22.40;;
15466;SDS011;7834;49.452;11.056;2024-03-02T03:43:20;29.02;;;23.00;;
15466;SDS011;7834;49.452;11.056;2024-03-02T03:45:46;30.87;;;23.80;;
15466;SDS011;7834;49.452;11.056;2024-03-02T03:48:11;29.08;;;22.80;;
15466;SDS011;7834;49.452;11.056;2024-03-02T03:50:37;27.83;;;21.53;;
15466;SDS011;7834;49.452;11.056;2024-03-02T03:53:03;29.17;;;22.08;;
15466;SDS011;7834;49.452;11.056;2024-03-02T03:55:29;28.38;;;21.80;;
15466;SDS011;7834;49.452;11.056;2024-03-02T03:57:54;26.30;;;21.40;;
15466;SDS011;7834;49.452;11.056;2024-03-02T04:00:26;25.88;;;20.50;;
15466;SDS011;7834;49.452;11.056;2024-03-02T04:02:51;27.25;;;20.60;;
15466;SDS011;7834;49.452;11.056;2024-03-02T04:05:17;26.70;;;21.10;;
15466;SDS011;7834;49.452;11.056;2024-03-02T04:07:42;26.93;;;21.10;;
15466;SDS011;7834;49.452;11.056;2024-03-02T04:10:09;26.20;;;20.17;;
15466;SDS011;7834;49.452;11.056;2024-03-02T04:12:38;24.40;;;20.13;;
15466;SDS011;7834;49.452;11.056;2024-03-02T04:15:04;24.60;;;19.27;;
15466;SDS011;7834;49.452;11.056;2024-03-02T04:17:32;25.10;;;19.65;;
15466;SDS011;7834;49.452;11.056;2024-03-02T04:19:58;25.75;;;19.92;;
15466;SDS011;7834;49.452;11.056;2024-03-02T04:22:27;24.13;;;19.10;;
15466;SDS011;7834;49.452;11.056;2024-03-02T04:24:53;23.88;;;19.58;;
15466;SDS011;7834;49.452;11.056;2024-03-02T04:27:19;25.38;;;19.52;;
15466;SDS011;7834;49.452;11.056;2024-03-02T04:29:47;23.40;;;19.07;;
15466;SDS011;7834;49.452;11.056;2024-03-02T04:32:13;25.42;;;19.35;;
15466;SDS011;7834;49.452;11.056;2024-03-02T04:34:39;24.63;;;19.43;;
15466;SDS011;7834;49.452;11.056;2024-03-02T04:37:04;25.40;;;20.13;;
15466;SDS011;7834;49.452;11.056;2024-03-02T04:39:30;25.50;;;20.03;;
15466;SDS011;7834;49.452;11.056;2024-03-02T04:41:56;25.40;;;19.95;;
15466;SDS011;7834;49.452;11.056;2024-03-02T04:44:21;23.47;;;18.93;;
15466;SDS011;7834;49.452;11.056;2024-03-02T04:46:47;23.50;;;18.80;;
15466;SDS011;7834;49.452;11.056;2024-03-02T04:49:12;24.27;;;19.53;;
15466;SDS011;7834;49.452;11.056;2024-03-02T04:51:38;24.43;;;19.27;;
15466;SDS011;7834;49.452;11.056;2024-03-02T04:54:03;24.87;;;19.40;;
15466;SDS011;7834;49.452;11.056;2024-03-02T04:56:29;24.87;;;19.10;;
15466;SDS011;7834;49.452;11.056;2024-03-02T04:59:15;24.88;;;19.13;;
15466;SDS011;7834;49.452;11.056;2024-03-02T05:01:41;25.57;;;19.60;;
15466;SDS011;7834;49.452;11.056;2024-03-02T05:04:07;26.52;;;20.52;;
15466;SDS011;7834;49.452;11.056;2024-03-02T05:06:32;27.87;;;20.43;;
15466;SDS011;7834;49.452;11.056;2024-03-02T05:08:58;27.70;;;20.73;;
15466;SDS011;7834;49.452;11.056;2024-03-02T05:11:24;27.27;;;20.60;;
15466;SDS011;7834;49.452;11.056;2024-03-02T05:14:07;28.83;;;21.83;;
15466;SDS011;7834;49.452;11.056;2024-03-02T05:16:35;29.02;;;21.45;;
15466;SDS011;7834;49.452;11.056;2024-03-02T05:19:03;27.52;;;20.92;;
15466;SDS011;7834;49.452;11.056;2024-03-02T05:21:31;28.92;;;21.52;;
15466;SDS011;7834;49.452;11.056;2024-03-02T05:23:56;29.40;;;22.20;;
15466;SDS011;7834;49.452;11.056;2024-03-02T05:26:22;27.60;;;20.77;;
15466;SDS011;7834;49.452;11.056;2024-03-02T05:28:48;29.87;;;21.83;;
15466;SDS011;7834;49.452;11.056;2024-03-02T05:31:17;28.23;;;20.55;;
15466;SDS011;7834;49.452;11.056;2024-03-02T05:33:43;29.45;;;21.58;;
15466;SDS011;7834;49.452;11.056;2024-03-02T05:36:09;29.30;;;22.05;;
15466;SDS011;7834;49.452;11.056;2024-03-02T05:38:35;26.98;;;20.80;;
15466;SDS011;7834;49.452;11.056;2024-03-02T05:41:00;28.83;;;21.93;;
15466;SDS011;7834;49.452;11.056;2024-03-02T05:43:26;28.88;;;21.73;;
15466;SDS011;7834;49.452;11.056;2024-03-02T05:45:52;26.27;;;20.40;;
15466;SDS011;7834;49.452;11.056;2024-03-02T05:48:17;27.70;;;20.85;;
15466;SDS011;7834;49.452;11.056;2024-03-02T05:50:43;29.63;;;21.27;;
15466;SDS011;7834;49.452;11.056;2024-03-02T05:53:09;27.47;;;21.27;;
15466;SDS011;7834;49.452;11.056;2024-03-02T05:55:34;27.52;;;21.10;;
15466;SDS011;7834;49.452;11.056;2024-03-02T05:58:00;27.97;;;20.73;;
15466;SDS011;7834;49.452;11.056;2024-03-02T06:00:31;27.10;;;20.95;;
15466;SDS011;7834;49.452;11.056;2024-03-02T06:02:57;27.83;;;21.42;;
15466;SDS011;7834;49.452;11.056;2024-03-02T06:05:23;28.30;;;20.73;;
15466;SDS011;7834;49.452;11.056;2024-03-02T06:07:49;26.33;;;20.67;;
15466;SDS011;7834;49.452;11.056;2024-03-02T06:10:14;28.77;;;20.90;;
15466;SDS011;7834;49.452;11.056;2024-03-02T06:12:43;29.05;;;21.60;;
15466;SDS011;7834;49.452;11.056;2024-03-02T06:15:09;25.85;;;20.08;;
15466;SDS011;7834;49.452;11.056;2024-03-02T06:17:35;28.63;;;21.52;;
15466;SDS011;7834;49.452;11.056;2024-03-02T06:20:00;27.23;;;20.77;;
15466;SDS011;7834;49.452;11.056;2024-03-02T06:22:26;27.92;;;21.50;;
15466;SDS011;7834;49.452;11.056;2024-03-02T06:24:56;26.70;;;20.25;;
15466;SDS011;7834;49.452;11.056;2024-03-02T06:27:22;29.30;;;21.67;;
15466;SDS011;7834;49.452;11.056;2024-03-02T06:29:47;27.58;;;21.00;;
15466;SDS011;7834;49.452;11.056;2024-03-02T06:32:13;28.83;;;20.40;;
15466;SDS011;7834;49.452;11.056;2024-03-02T06:34:39;28.33;;;20.97;;
15466;SDS011;7834;49.452;11.056;2024-03-02T06:37:05;28.55;;;21.75;;
15466;SDS011;7834;49.452;11.056;2024-03-02T06:39:30;28.17;;;21.60;;
15466;SDS011;7834;49.452;11.056;2024-03-02T06:42:02;27.92;;;21.58;;
15466;SDS011;7834;49.452;11.056;2024-03-02T06:44:28;28.33;;;21.42;;
15466;SDS011;7834;49.452;11.056;2024-03-02T06:46:53;27.33;;;21.23;;
15466;SDS011;7834;49.452;11.056;2024-03-02T06:49:19;27.92;;;21.40;;
15466;SDS011;7834;49.452;11.056;2024-03-02T06:51:45;26.83;;;21.63;;
15466;SDS011;7834;49.452;11.056;2024-03-02T06:54:10;27.13;;;20.80;;
15466;SDS011;7834;49.452;11.056;2024-03-02T06:56:36;27.37;;;21.47;;
15466;SDS011;7834;49.452;11.056;2024-03-02T06:59:04;26.42;;;20.58;;
15466;SDS011;7834;49.452;11.056;2024-03-02T07:01:29;27.50;;;21.30;;
15466;SDS011;7834;49.452;11.056;2024-03-02T07:03:55;26.88;;;21.05;;
15466;SDS011;7834;49.452;11.056;2024-03-02T07:06:20;25.73;;;20.60;;
15466;SDS011;7834;49.452;11.056;2024-03-02T07:08:46;27.30;;;21.27;;
15466;SDS011;7834;49.452;11.056;2024-03-02T07:11:11;25.67;;;20.63;;
15466;SDS011;7834;49.452;11.056;2024-03-02T07:13:37;27.33;;;21.07;;
15466;SDS011;7834;49.452;11.056;2024-03-02T07:16:03;28.27;;;21.55;;
15466;SDS011;7834;49.452;11.056;2024-03-02T07:18:31;26.87;;;21.20;;
15466;SDS011;7834;49.452;11.056;2024-03-02T07:20:57;25.73;;;20.30;;
15466;SDS011;7834;49.452;11.056;2024-03-02T07:23:26;28.02;;;20.42;;
15466;SDS011;7834;49.452;11.056;2024-03-02T07:25:53;24.48;;;19.45;;
15466;SDS011;7834;49.452;11.056;2024-03-02T07:28:24;35.13;;;21.15;;
15466;SDS011;7834;49.452;11.056;2024-03-02T07:30:59;31.27;;;20.33;;
15466;SDS011;7834;49.452;11.056;2024-03-02T07:33:26;26.00;;;19.17;;
15466;SDS011;7834;49.452;11.056;2024-03-02T07:35:52;28.57;;;18.77;;
15466;SDS011;7834;49.452;11.056;2024-03-02T07:38:17;26.38;;;18.50;;
15466;SDS011;7834;49.452;11.056;2024-03-02T07:40:43;28.67;;;18.75;;
15466;SDS011;7834;49.452;11.056;2024-03-02T07:43:09;26.02;;;19.30;;
15466;SDS011;7834;49.452;11.056;2024-03-02T07:45:34;27.13;;;19.42;;
15466;SDS011;7834;49.452;11.056;2024-03-02T07:48:03;25.05;;;18.88;;
15466;SDS011;7834;49.452;11.056;2024-03-02T07:50:29;21.95;;;18.75;;
15466;SDS011;7834;49.452;11.056;2024-03-02T07:52:55;22.80;;;18.77;;
15466;SDS011;7834;49.452;11.056;2024-03-02T07:55:21;21.38;;;18.15;;
15466;SDS011;7834;49.452;11.056;2024-03-02T07:57:49;22.90;;;18.38;;
15466;SDS011;7834;49.452;11.056;2024-03-02T08:00:15;21.10;;;17.67;;
15466;SDS011;7834;49.452;11.056;2024-03-02T08:02:41;21.33;;;18.02;;
15466;SDS011;7834;49.452;11.056;2024-03-02T08:05:07;21.75;;;17.20;;
15466;SDS011;7834;49.452;11.056;2024-03-02T08:07:34;21.63;;;16.98;;
15466;SDS011;7834;49.452;11.056;2024-03-02T08:09:59;23.95;;;18.38;;
15466;SDS011;7834;49.452;11.056;2024-03-02T08:12:25;23.67;;;18.03;;
15466;SDS011;7834;49.452;11.056;2024-03-02T08:14:50;25.05;;;18.08;;
15466;SDS011;7834;49.452;11.056;2024-03-02T08:17:16;25.53;;;18.57;;
15466;SDS011;7834;49.452;11.056;2024-03-02T08:19:42;31.00;;;19.02;;
15466;SDS011;7834;49.452;11.056;2024-03-02T08:22:07;25.60;;;18.20;;
15466;SDS011;7834;49.452;11.056;2024-03-02T08:24:33;23.92;;;17.85;;
15466;SDS011;7834;49.452;11.056;2024-03-02T08:26:59;21.53;;;17.30;;
15466;SDS011;7834;49.452;11.056;2024-03-02T08:29:25;21.95;;;17.33;;
15466;SDS011;7834;49.452;11.056;2024-03-02T08:31:50;20.77;;;17.55;;
15466;SDS011;7834;49.452;11.056;2024-03-02T08:34:16;25.13;;;17.33;;
15466;SDS011;7834;49.452;11.056;2024-03-02T08:36:41;28.63;;;18.53;;
15466;SDS011;7834;49.452;11.056;2024-03-02T08:39:08;26.55;;;17.90;;
15466;SDS011;7834;49.452;11.056;2024-03-02T08:41:46;22.20;;;17.37;;
15466;SDS011;7834;49.452;11.056;2024-03-02T08:44:12;33.80;;;18.30;;
15466;SDS011;7834;49.452;11.056;2024-03-02T08:46:38;28.02;;;18.10;;
15466;SDS011;7834;49.452;11.056;2024-03-02T08:49:04;23.80;;;17.02;;
15466;SDS011;7834;49.452;11.056;2024-03-02T08:51:29;18.80;;;15.83;;
15466;SDS011;7834;49.452;11.056;2024-03-02T08:53:55;19.30;;;15.98;;
15466;SDS011;7834;49.452;11.056;2024-03-02T08:56:21;18.75;;;15.98;;
15466;SDS011;7834;49.452;11.056;2024-03-02T08:58:49;18.05;;;14.80;;
15466;SDS011;7834;49.452;11.056;2024-03-02T09:01:15;16.70;;;14.90;;
15466;SDS011;7834;49.452;11.056;2024-03-02T09:03:41;17.17;;;14.97;;
15466;SDS011;7834;49.452;11.056;2024-03-02T09:06:10;17.70;;;15.13;;
15466;SDS011;7834;49.452;11.056;2024-03-02T09:08:35;17.35;;;14.63;;
15466;SDS011;7834;49.452;11.056;2024-03-02T09:11:05;18.50;;;13.70;;
15466;SDS011;7834;49.452;11.056;2024-03-02T09:13:32;20.48;;;13.65;;
15466;SDS011;7834;49.452;11.056;2024-03-02T09:15:57;15.02;;;13.23;;
15466;SDS011;7834;49.452;11.056;2024-03-02T09:18:23;13.63;;;12.23;;
15466;SDS011;7834;49.452;11.056;2024-03-02T09:20:49;13.60;;;12.13;;
15466;SDS011;7834;49.452;11.056;2024-03-02T09:23:15;13.27;;;11.75;;
15466;SDS011;7834;49.452;11.056;2024-03-02T09:25:40;12.60;;;11.30;;
15466;SDS011;7834;49.452;11.056;2024-03-02T09:28:06;13.07;;;11.77;;
15466;SDS011;7834;49.452;11.056;2024-03-02T09:30:32;12.43;;;11.13;;
15466;SDS011;7834;49.452;11.056;2024-03-02T09:32:58;12.37;;;10.93;;
15466;SDS011;7834;49.452;11.056;2024-03-02T09:35:24;12.45;;;11.15;;
15466;SDS011;7834;49.452;11.056;2024-03-02T09:37:49;13.13;;;10.73;;
15466;SDS011;7834;49.452;11.056;2024-03-02T09:40:15;12.10;;;10.90;;
15466;SDS011;7834;49.452;11.056;2024-03-02T09:42:41;12.50;;;11.20;;
15466;SDS011;7834;49.452;11.056;2024-03-02T09:45:08;12.48;;;11.18;;
15466;SDS011;7834;49.452;11.056;2024-03-02T09:47:34;11.75;;;10.60;;
15466;SDS011;7834;49.452;11.056;2024-03-02T09:49:59;12.10;;;10.75;;
15466;SDS011;7834;49.452;11.056;2024-03-02T09:52:25;11.38;;;10.27;;
15466;SDS011;7834;49.452;11.056;2024-03-02T09:54:51;11.40;;;10.30;;
15466;SDS011;7834;49.452;11.056;2024-03-02T09:57:16;12.85;;;11.55;;
15466;SDS011;7834;49.452;11.056;2024-03-02T09:59:42;12.07;;;10.83;;
15466;SDS011;7834;49.452;11.056;2024-03-02T10:02:08;11.82;;;10.63;;
15466;SDS011;7834;49.452;11.056;2024-03-02T10:04:33;11.57;;;10.37;;
15466;SDS011;7834;49.452;11.056;2024-03-02T10:07:10;10.90;;;9.80;;
15466;SDS011;7834;49.452;11.056;2024-03-02T10:09:37;12.07;;;10.70;;
15466;SDS011;7834;49.452;11.056;2024-03-02T10:12:06;11.10;;;10.00;;
15466;SDS011;7834;49.452;11.056;2024-03-02T10:14:32;11.60;;;10.50;;
15466;SDS011;7834;49.452;11.056;2024-03-02T10:19:29;11.05;;;9.95;;
15466;SDS011;7834;49.452;11.056;2024-03-02T10:21:58;10.80;;;9.70;;
15466;SDS011;7834;49.452;11.056;2024-03-02T10:24:24;11.18;;;10.07;;
15466;SDS011;7834;49.452;11.056;2024-03-02T10:26:50;10.55;;;9.55;;
15466;SDS011;7834;49.452;11.056;2024-03-02T10:29:16;10.68;;;9.43;;
15466;SDS011;7834;49.452;11.056;2024-03-02T10:31:45;9.85;;;8.95;;
15466;SDS011;7834;49.452;11.056;2024-03-02T10:34:12;10.23;;;9.27;;
15466;SDS011;7834;49.452;11.056;2024-03-02T10:36:40;10.07;;;9.07;;
15466;SDS011;7834;49.452;11.056;2024-03-02T10:39:06;10.55;;;9.55;;
15466;SDS011;7834;49.452;11.056;2024-03-02T10:41:33;10.88;;;9.35;;
15466;SDS011;7834;49.452;11.056;2024-03-02T10:43:59;10.63;;;9.53;;
15466;SDS011;7834;49.452;11.056;2024-03-02T10:46:28;10.43;;;9.43;;
15466;SDS011;7834;49.452;11.056;2024-03-02T10:48:55;11.27;;;10.07;;
15466;SDS011;7834;49.452;11.056;2024-03-02T10:51:21;10.57;;;9.23;;
15466;SDS011;7834;49.452;11.056;2024-03-02T10:53:46;11.52;;;10.32;;
15466;SDS011;7834;49.452;11.056;2024-03-02T10:56:13;12.47;;;11.17;;
15466;SDS011;7834;49.452;11.056;2024-03-02T10:58:41;14.10;;;12.38;;
15466;SDS011;7834;49.452;11.056;2024-03-02T11:01:07;12.83;;;11.53;;
15466;SDS011;7834;49.452;11.056;2024-03-02T11:03:33;14.33;;;12.83;;
15466;SDS011;7834;49.452;11.056;2024-03-02T11:06:00;14.43;;;12.93;;
15466;SDS011;7834;49.452;11.056;2024-03-02T11:08:27;14.30;;;12.88;;
15466;SDS011;7834;49.452;11.056;2024-03-02T11:10:54;13.45;;;12.15;;
15466;SDS011;7834;49.452;11.056;2024-03-02T11:13:32;13.25;;;11.95;;
15466;SDS011;7834;49.452;11.056;2024-03-02T11:15:59;12.73;;;11.40;;
15466;SDS011;7834;49.452;11.056;2024-03-02T11:18:26;13.55;;;12.15;;
15466;SDS011;7834;49.452;11.056;2024-03-02T11:20:52;13.52;;;12.23;;
15466;SDS011;7834;49.452;11.056;2024-03-02T11:23:18;13.73;;;12.20;;
15466;SDS011;7834;49.452;11.056;2024-03-02T11:25:43;13.88;;;12.57;;
15466;SDS011;7834;49.452;11.056;2024-03-02T11:28:09;14.30;;;12.80;;
15466;SDS011;7834;49.452;11.056;2024-03-02T11:33:02;15.48;;;13.88;;
15466;SDS011;7834;49.452;11.056;2024-03-02T11:35:34;15.13;;;13.60;;
15466;SDS011;7834;49.452;11.056;2024-03-02T11:38:00;14.60;;;13.10;;
15466;SDS011;7834;49.452;11.056;2024-03-02T11:40:26;15.27;;;13.77;;
15466;SDS011;7834;49.452;11.056;2024-03-02T11:42:52;15.20;;;13.67;;
15466;SDS011;7834;49.452;11.056;2024-03-02T11:45:24;15.27;;;13.68;;
15466;SDS011;7834;49.452;11.056;2024-03-02T11:47:50;13.90;;;12.55;;
15466;SDS011;7834;49.452;11.056;2024-03-02T11:50:28;13.95;;;12.45;;
15466;SDS011;7834;49.452;11.056;2024-03-02T11:52:53;13.77;;;12.10;;
15466;SDS011;7834;49.452;11.056;2024-03-02T11:55:20;13.65;;;12.25;;
15466;SDS011;7834;49.452;11.056;2024-03-02T11:57:46;13.40;;;12.05;;
15466;SDS011;7834;49.452;11.056;2024-03-02T12:00:19;13.15;;;11.85;;
15466;SDS011;7834;49.452;11.056;2024-03-02T12:02:45;13.52;;;12.20;;
15466;SDS011;7834;49.452;11.056;2024-03-02T12:05:15;14.75;;;13.23;;
15466;SDS011;7834;49.452;11.056;2024-03-02T12:07:41;15.80;;;14.10;;
15466;SDS011;7834;49.452;11.056;2024-03-02T12:10:06;14.30;;;12.80;;
15466;SDS011;7834;49.452;11.056;2024-03-02T12:12:32;14.87;;;13.30;;
15466;SDS011;7834;49.452;11.056;2024-03-02T12:14:58;16.58;;;14.82;;
15466;SDS011;7834;49.452;11.056;2024-03-02T12:17:25;15.52;;;13.90;;
15466;SDS011;7834;49.452;11.056;2024-03-02T12:19:51;17.27;;;15.27;;
15466;SDS011;7834;49.452;11.056;2024-03-02T12:22:18;17.42;;;15.55;;
15466;SDS011;7834;49.452;11.056;2024-03-02T12:24:44;18.10;;;15.67;;
15466;SDS011;7834;49.452;11.056;2024-03-02T12:27:12;19.07;;;16.63;;
15466;SDS011;7834;49.452;11.056;2024-03-02T12:29:38;19.70;;;16.98;;
15466;SDS011;7834;49.452;11.056;2024-03-02T12:32:05;19.92;;;17.27;;
15466;SDS011;7834;49.452;11.056;2024-03-02T12:34:30;23.02;;;18.08;;
15466;SDS011;7834;49.452;11.056;2024-03-02T12:36:56;20.13;;;17.63;;
15466;SDS011;7834;49.452;11.056;2024-03-02T12:39:22;19.65;;;17.55;;
15466;SDS011;7834;49.452;11.056;2024-03-02T12:41:51;20.55;;;17.95;;
15466;SDS011;7834;49.452;11.056;2024-03-02T12:44:19;20.30;;;18.20;;
15466;SDS011;7834;49.452;11.056;2024-03-02T12:46:45;22.25;;;19.27;;
15466;SDS011;7834;49.452;11.056;2024-03-02T12:49:11;21.65;;;18.58;;
15466;SDS011;7834;49.452;11.056;2024-03-02T12:51:39;20.45;;;18.25;;
15466;SDS011;7834;49.452;11.056;2024-03-02T12:54:06;22.80;;;19.70;;
15466;SDS011;7834;49.452;11.056;2024-03-02T12:56:31;22.15;;;19.75;;
15466;SDS011;7834;49.452;11.056;2024-03-02T12:58:58;21.43;;;19.13;;
15466;SDS011;7834;49.452;11.056;2024-03-02T13:01:24;20.77;;;18.50;;
15466;SDS011;7834;49.452;11.056;2024-03-02T13:03:50;19.70;;;17.52;;
15466;SDS011;7834;49.452;11.056;2024-03-02T13:06:18;19.75;;;17.27;;
15466;SDS011;7834;49.452;11.056;2024-03-02T13:08:45;20.13;;;17.20;;
15466;SDS011;7834;49.452;11.056;2024-03-02T13:11:10;19.00;;;17.00;;
15466;SDS011;7834;49.452;11.056;2024-03-02T13:13:36;19.63;;;17.30;;
15466;SDS011;7834;49.452;11.056;2024-03-02T13:16:03;18.98;;;16.73;;
15466;SDS011;7834;49.452;11.056;2024-03-02T13:18:29;19.70;;;17.37;;
15466;SDS011;7834;49.452;11.056;2024-03-02T13:20:55;19.00;;;16.13;;
15466;SDS011;7834;49.452;11.056;2024-03-02T13:23:21;17.08;;;15.27;;
15466;SDS011;7834;49.452;11.056;2024-03-02T13:25:47;15.60;;;13.90;;
15466;SDS011;7834;49.452;11.056;2024-03-02T13:28:13;15.90;;;13.77;;
15466;SDS011;7834;49.452;11.056;2024-03-02T13:30:38;15.77;;;13.47;;
15466;SDS011;7834;49.452;11.056;2024-03-02T13:33:04;16.27;;;13.40;;
15466;SDS011;7834;49.452;11.056;2024-03-02T13:35:29;14.10;;;12.57;;
15466;SDS011;7834;49.452;11.056;2024-03-02T13:37:58;15.80;;;13.90;;
15466;SDS011;7834;49.452;11.056;2024-03-02T13:40:23;16.93;;;13.60;;
15466;SDS011;7834;49.452;11.056;2024-03-02T13:42:49;14.80;;;12.93;;
15466;SDS011;7834;49.452;11.056;2024-03-02T13:45:16;15.00;;;13.40;;
15466;SDS011;7834;49.452;11.056;2024-03-02T13:47:43;14.60;;;13.00;;
15466;SDS011;7834;49.452;11.056;2024-03-02T13:50:09;15.47;;;12.83;;
15466;SDS011;7834;49.452;11.056;2024-03-02T13:52:34;15.55;;;12.98;;
15466;SDS011;7834;49.452;11.056;2024-03-02T13:55:00;16.40;;;13.50;;
15466;SDS011;7834;49.452;11.056;2024-03-02T13:57:26;14.17;;;12.50;;
15466;SDS011;7834;49.452;11.056;2024-03-02T13:59:51;14.18;;;12.68;;
15466;SDS011;7834;49.452;11.056;2024-03-02T14:02:17;14.63;;;12.73;;
15466;SDS011;7834;49.452;11.056;2024-03-02T14:04:43;15.05;;;12.77;;
15466;SDS011;7834;49.452;11.056;2024-03-02T14:07:09;13.90;;;12.00;;
15466;SDS011;7834;49.452;11.056;2024-03-02T14:09:36;14.07;;;12.02;;
15466;SDS011;7834;49.452;11.056;2024-03-02T14:12:02;15.48;;;12.68;;
15466;SDS011;7834;49.452;11.056;2024-03-02T14:14:27;16.38;;;14.27;;
15466;SDS011;7834;49.452;11.056;2024-03-02T14:16:54;15.83;;;13.37;;
15466;SDS011;7834;49.452;11.056;2024-03-02T14:19:20;16.02;;;13.43;;
15466;SDS011;7834;49.452;11.056;2024-03-02T14:21:46;16.55;;;14.70;;
15466;SDS011;7834;49.452;11.056;2024-03-02T14:24:12;18.08;;;14.68;;
15466;SDS011;7834;49.452;11.056;2024-03-02T14:26:38;16.88;;;13.38;;